Time;durP1;ratioP1;P1;durP2;ratioP2;P2;SDS_P1;SDS_P2;PMS_P1;PMS_P2;Temp;Humidity;BMP_temperature;BMP_pressure;BME280_temperature;BME280_humidity;BME280_pressure;Samples;Min_cycle;Max_cycle;Signal;HPM_P1;HPM_P2
2024/04/01 00:02:30;;;;;;;15.30;4.22;;;;;;;;;;5883163;28;20040;-66
2024/04/01 00:05:20;;;;;;;11.88;3.45;;;;;;;;;;5886246;28;20052;-66
2024/04/01 00:08:10;;;;;;;21.10;3.45;;;;;;;;;;5902957;28;20123;-66
2024/04/01 00:10:59;;;;;;;16.13;4.50;;;;;;;;;;5886349;28;20049;-66
2024/04/01 00:13:49;;;;;;;16.05;4.15;;;;;;;;;;5885855;28;20064;-66
2024/04/01 00:16:39;;;;;;;32.38;3.70;;;;;;;;;;5885884;28;20435;-66
2024/04/01 00:19:29;;;;;;;12.82;3.83;;;;;;;;;;5885867;28;20132;-66
2024/04/01 00:22:18;;;;;;;12.05;4.30;;;;;;;;;;5902496;28;20078;-66
2024/04/01 00:25:08;;;;;;;12.25;3.83;;;;;;;;;;5885523;28;20045;-66
2024/04/01 00:27:58;;;;;;;21.52;4.32;;;;;;;;;;5869568;28;20052;-66
2024/04/01 00:30:48;;;;;;;22.83;7.60;;;;;;;;;;5885341;28;20047;-66
2024/04/01 00:33:37;;;;;;;35.35;6.57;;;;;;;;;;5885554;28;20497;-66
2024/04/01 00:36:27;;;;;;;16.55;5.35;;;;;;;;;;5885555;28;20068;-66
2024/04/01 00:39:17;;;;;;;47.15;9.32;;;;;;;;;;5885452;28;20053;-66
2024/04/01 00:42:07;;;;;;;48.45;8.45;;;;;;;;;;5885155;28;20044;-66
2024/04/01 00:44:58;;;;;;;26.63;8.50;;;;;;;;;;5885579;28;20045;-66
2024/04/01 00:47:47;;;;;;;22.10;7.95;;;;;;;;;;5885243;28;20045;-66
2024/04/01 00:50:38;;;;;;;26.13;6.85;;;;;;;;;;5885071;28;20061;-66
2024/04/01 00:53:27;;;;;;;20.85;7.00;;;;;;;;;;5868631;28;20049;-66
2024/04/01 00:56:18;;;;;;;17.85;4.57;;;;;;;;;;5885005;28;20111;-66
2024/04/01 00:59:08;;;;;;;14.65;5.95;;;;;;;;;;5885020;28;20415;-66
2024/04/01 01:01:58;;;;;;;31.40;7.72;;;;;;;;;;5885464;28;20044;-66
2024/04/01 01:04:48;;;;;;;16.67;4.90;;;;;;;;;;5901319;28;20040;-66
2024/04/01 01:07:38;;;;;;;29.55;4.72;;;;;;;;;;5884248;28;20415;-66
2024/04/01 01:10:31;;;;;;;8.50;4.25;;;;;;;;;;5868186;28;20060;-66
2024/04/01 01:13:21;;;;;;;11.88;3.58;;;;;;;;;;5884694;28;20533;-66
2024/04/01 01:16:11;;;;;;;36.60;7.72;;;;;;;;;;5901308;28;20552;-66
2024/04/01 01:19:01;;;;;;;17.90;4.18;;;;;;;;;;5884725;28;20458;-66
2024/04/01 01:22:05;;;;;;;21.20;4.75;;;;;;;;;;5885104;28;20048;-66
2024/04/01 01:24:54;;;;;;;19.77;3.22;;;;;;;;;;5901072;28;20387;-66
2024/04/01 01:27:44;;;;;;;22.20;3.40;;;;;;;;;;5901128;28;20072;-66
2024/04/01 01:30:37;;;;;;;26.75;3.90;;;;;;;;;;5884205;28;20095;-66
2024/04/01 01:33:28;;;;;;;9.23;2.25;;;;;;;;;;5884622;28;20411;-66
2024/04/01 01:36:18;;;;;;;18.45;2.92;;;;;;;;;;5884499;28;20048;-65
2024/04/01 01:39:12;;;;;;;7.75;3.58;;;;;;;;;;5884186;28;20049;-66
2024/04/01 01:42:02;;;;;;;9.10;3.70;;;;;;;;;;5884292;28;20052;-66
2024/04/01 01:44:52;;;;;;;3.75;2.30;;;;;;;;;;5901350;28;20056;-66
2024/04/01 01:47:42;;;;;;;7.88;3.00;;;;;;;;;;5884320;28;20052;-65
2024/04/01 01:50:31;;;;;;;27.20;5.75;;;;;;;;;;5884189;28;20053;-65
2024/04/01 01:53:21;;;;;;;18.50;3.55;;;;;;;;;;5884202;28;20472;-65
2024/04/01 01:56:11;;;;;;;15.75;4.45;;;;;;;;;;5884212;28;20053;-65
2024/04/01 01:59:02;;;;;;;37.78;4.45;;;;;;;;;;5884313;28;20400;-66
2024/04/01 02:01:52;;;;;;;9.43;3.60;;;;;;;;;;5884366;28;20064;-65
2024/04/01 02:04:42;;;;;;;10.48;2.78;;;;;;;;;;5883980;28;20099;-65
2024/04/01 02:07:32;;;;;;;16.15;2.80;;;;;;;;;;5900728;28;20048;-65
2024/04/01 02:10:22;;;;;;;12.57;2.88;;;;;;;;;;5883886;28;20056;-65
2024/04/01 02:13:14;;;;;;;6.03;2.92;;;;;;;;;;5900577;28;20053;-65
2024/04/01 02:16:10;;;;;;;26.20;4.18;;;;;;;;;;5883609;28;20045;-66
2024/04/01 02:19:00;;;;;;;7.25;3.03;;;;;;;;;;5887122;28;20049;-65
2024/04/01 02:21:50;;;;;;;17.30;2.95;;;;;;;;;;5872430;28;20041;-65
2024/04/01 02:24:43;;;;;;;2.38;1.58;;;;;;;;;;5871680;28;20103;-65
2024/04/01 02:27:33;;;;;;;8.75;2.90;;;;;;;;;;5888432;28;20045;-65
2024/04/01 02:30:23;;;;;;;10.25;3.65;;;;;;;;;;5888166;28;20103;-65
2024/04/01 02:33:12;;;;;;;7.30;2.35;;;;;;;;;;5888283;28;20051;-65
2024/04/01 02:36:03;;;;;;;12.32;3.28;;;;;;;;;;5888103;28;20048;-65
2024/04/01 02:38:52;;;;;;;7.28;3.40;;;;;;;;;;5905173;28;20401;-65
2024/04/01 02:41:46;;;;;;;7.35;2.63;;;;;;;;;;5888130;28;20053;-65
2024/04/01 02:44:35;;;;;;;13.00;3.03;;;;;;;;;;5887638;28;20056;-65
2024/04/01 02:47:25;;;;;;;7.45;3.42;;;;;;;;;;5871382;28;20041;-65
2024/04/01 02:50:15;;;;;;;12.15;2.53;;;;;;;;;;5904495;28;20060;-65
2024/04/01 02:53:05;;;;;;;12.77;3.15;;;;;;;;;;5888034;28;20498;-65
2024/04/01 02:55:55;;;;;;;7.95;3.47;;;;;;;;;;5904702;28;20122;-64
2024/04/01 02:58:44;;;;;;;20.80;4.13;;;;;;;;;;5904538;28;20114;-64
2024/04/01 03:01:34;;;;;;;8.45;2.92;;;;;;;;;;5887727;28;20471;-64
2024/04/01 03:04:24;;;;;;;18.75;4.20;;;;;;;;;;5887204;28;20055;-65
2024/04/01 03:07:13;;;;;;;37.50;4.40;;;;;;;;;;5887536;28;20056;-64
2024/04/01 03:10:04;;;;;;;19.50;3.13;;;;;;;;;;5887295;28;20044;-65
2024/04/01 03:12:53;;;;;;;7.25;3.45;;;;;;;;;;5888021;28;20392;-64
2024/04/01 03:15:44;;;;;;;8.85;3.90;;;;;;;;;;5887104;28;20045;-64
2024/04/01 03:18:34;;;;;;;30.83;3.30;;;;;;;;;;5887204;28;20049;-65
2024/04/01 03:21:24;;;;;;;11.57;3.03;;;;;;;;;;5887340;28;20415;-65
2024/04/01 03:24:14;;;;;;;34.63;2.88;;;;;;;;;;5903721;28;20120;-65
2024/04/01 03:27:03;;;;;;;10.07;2.78;;;;;;;;;;5887351;28;20044;-65
2024/04/01 03:29:53;;;;;;;15.60;3.90;;;;;;;;;;5886784;28;20471;-64
2024/04/01 03:32:43;;;;;;;19.20;3.58;;;;;;;;;;5903610;28;20514;-64
2024/04/01 03:35:33;;;;;;;18.38;4.10;;;;;;;;;;5886749;28;20052;-64
2024/04/01 03:38:23;;;;;;;14.07;2.70;;;;;;;;;;5886911;28;20062;-65
2024/04/01 03:41:13;;;;;;;6.75;2.58;;;;;;;;;;5886620;28;20049;-65
2024/04/01 03:44:03;;;;;;;14.93;3.80;;;;;;;;;;5886519;28;20044;-65
2024/04/01 03:46:53;;;;;;;11.15;2.95;;;;;;;;;;5903923;28;20077;-64
2024/04/01 03:49:42;;;;;;;8.38;3.42;;;;;;;;;;5886377;28;20506;-64
2024/04/01 03:52:35;;;;;;;19.00;4.35;;;;;;;;;;5886372;28;20049;-65
2024/04/01 03:55:25;;;;;;;8.93;3.50;;;;;;;;;;5886533;28;20041;-65
2024/04/01 03:58:15;;;;;;;7.70;2.78;;;;;;;;;;5886625;28;20549;-65
2024/04/01 04:01:05;;;;;;;4.45;2.55;;;;;;;;;;5886127;28;20045;-65
2024/04/01 04:03:55;;;;;;;5.47;2.72;;;;;;;;;;5886855;28;20041;-64
2024/04/01 04:06:44;;;;;;;10.90;3.03;;;;;;;;;;5886251;28;20060;-64
2024/04/01 04:09:34;;;;;;;3.17;1.88;;;;;;;;;;5886039;28;20049;-65
2024/04/01 04:12:24;;;;;;;10.63;3.20;;;;;;;;;;5886195;28;20041;-65
2024/04/01 04:15:14;;;;;;;17.38;3.92;;;;;;;;;;5886099;28;20410;-65
2024/04/01 04:18:04;;;;;;;9.13;3.60;;;;;;;;;;5885844;28;20052;-65
2024/04/01 04:20:54;;;;;;;4.20;2.50;;;;;;;;;;5886043;28;20053;-64
2024/04/01 04:23:44;;;;;;;3.28;2.53;;;;;;;;;;5885843;28;20045;-65
2024/04/01 04:26:34;;;;;;;10.27;3.58;;;;;;;;;;5885765;28;20044;-65
2024/04/01 04:29:24;;;;;;;6.30;1.77;;;;;;;;;;5885692;28;20045;-65
2024/04/01 04:32:15;;;;;;;8.10;3.90;;;;;;;;;;5885656;28;20053;-65
2024/04/01 04:35:08;;;;;;;16.60;2.83;;;;;;;;;;5902201;28;20079;-65
2024/04/01 04:37:58;;;;;;;9.98;2.75;;;;;;;;;;5886182;28;20049;-64
2024/04/01 04:40:49;;;;;;;11.10;3.20;;;;;;;;;;5885128;28;20491;-65
2024/04/01 04:43:39;;;;;;;14.05;2.92;;;;;;;;;;5885122;28;20045;-65
2024/04/01 04:46:29;;;;;;;3.28;2.17;;;;;;;;;;5885524;28;20175;-65
2024/04/01 04:49:19;;;;;;;7.72;2.97;;;;;;;;;;5885199;28;20048;-65
2024/04/01 04:52:08;;;;;;;11.68;3.78;;;;;;;;;;5885221;28;20075;-65
2024/04/01 04:54:58;;;;;;;7.20;2.88;;;;;;;;;;5885781;28;20060;-65
2024/04/01 04:57:48;;;;;;;10.95;3.92;;;;;;;;;;5901757;28;20044;-65
2024/04/01 05:00:38;;;;;;;23.50;5.80;;;;;;;;;;5884947;28;20056;-65
2024/04/01 05:03:28;;;;;;;18.42;3.50;;;;;;;;;;5885002;28;20044;-65
2024/04/01 05:06:17;;;;;;;10.02;2.15;;;;;;;;;;5884783;28;20056;-65
2024/04/01 05:09:08;;;;;;;8.98;2.85;;;;;;;;;;5901557;28;20056;-65
2024/04/01 05:11:58;;;;;;;22.05;5.00;;;;;;;;;;5885299;28;20454;-65
2024/04/01 05:14:48;;;;;;;39.17;5.40;;;;;;;;;;5885161;28;20106;-65
2024/04/01 05:17:38;;;;;;;24.45;4.25;;;;;;;;;;5884838;28;20072;-65
2024/04/01 05:20:28;;;;;;;26.45;3.80;;;;;;;;;;5884777;28;20124;-65
2024/04/01 05:23:18;;;;;;;26.27;4.55;;;;;;;;;;5884593;28;20355;-65
2024/04/01 05:26:08;;;;;;;42.10;5.13;;;;;;;;;;5884541;28;20076;-66
2024/04/01 05:28:59;;;;;;;17.38;3.97;;;;;;;;;;5868492;28;20367;-65
2024/04/01 05:31:49;;;;;;;15.63;3.42;;;;;;;;;;5884425;28;20055;-65
2024/04/01 05:34:39;;;;;;;12.70;4.07;;;;;;;;;;5884131;28;20558;-65
2024/04/01 05:37:29;;;;;;;18.08;3.90;;;;;;;;;;5884332;28;20043;-65
2024/04/01 05:40:19;;;;;;;22.50;4.07;;;;;;;;;;5884433;28;20049;-65
2024/04/01 05:43:10;;;;;;;12.40;3.40;;;;;;;;;;5900902;28;20041;-66
2024/04/01 05:45:59;;;;;;;39.20;2.95;;;;;;;;;;5884919;28;20049;-65
2024/04/01 05:48:49;;;;;;;21.63;6.35;;;;;;;;;;5884016;28;20049;-65
2024/04/01 05:51:39;;;;;;;29.25;5.93;;;;;;;;;;5884350;28;20425;-66
2024/04/01 05:54:29;;;;;;;45.13;5.35;;;;;;;;;;5900937;28;20071;-66
2024/04/01 05:57:19;;;;;;;7.93;4.10;;;;;;;;;;5901042;28;20053;-66
2024/04/01 06:00:10;;;;;;;46.53;6.72;;;;;;;;;;5884276;28;20447;-66
2024/04/01 06:03:00;;;;;;;34.88;5.80;;;;;;;;;;5901491;28;20045;-66
2024/04/01 06:05:50;;;;;;;24.83;6.20;;;;;;;;;;5884018;28;20053;-66
2024/04/01 06:08:40;;;;;;;31.13;4.70;;;;;;;;;;5884100;28;20076;-66
2024/04/01 06:11:29;;;;;;;37.55;6.00;;;;;;;;;;5884346;28;20072;-66
2024/04/01 06:14:19;;;;;;;21.88;5.22;;;;;;;;;;5883703;28;20044;-66
2024/04/01 06:17:09;;;;;;;47.83;5.70;;;;;;;;;;5866987;28;20056;-66
2024/04/01 06:19:59;;;;;;;13.25;3.00;;;;;;;;;;5884338;28;20415;-66
2024/04/01 06:22:48;;;;;;;23.00;4.60;;;;;;;;;;5867442;28;20079;-66
2024/04/01 06:25:42;;;;;;;27.27;5.28;;;;;;;;;;5883736;28;20550;-66
2024/04/01 06:28:32;;;;;;;17.15;5.60;;;;;;;;;;5883850;28;20051;-66
2024/04/01 06:31:22;;;;;;;34.45;3.45;;;;;;;;;;5900708;28;20053;-66
2024/04/01 06:34:12;;;;;;;43.17;6.32;;;;;;;;;;5900304;28;20087;-66
2024/04/01 06:37:02;;;;;;;14.00;4.70;;;;;;;;;;5884042;28;20052;-66
2024/04/01 06:39:55;;;;;;;23.05;4.43;;;;;;;;;;5900808;28;20064;-66
2024/04/01 06:42:44;;;;;;;13.32;4.05;;;;;;;;;;5900447;28;20052;-66
2024/04/01 06:45:34;;;;;;;20.40;4.93;;;;;;;;;;5883310;28;20542;-66
2024/04/01 06:48:25;;;;;;;25.50;5.72;;;;;;;;;;5883754;28;20053;-66
2024/04/01 06:51:14;;;;;;;16.23;4.03;;;;;;;;;;5867222;28;20055;-66
2024/04/01 06:54:04;;;;;;;19.70;3.30;;;;;;;;;;5883708;28;20040;-67
2024/04/01 06:56:54;;;;;;;11.38;3.95;;;;;;;;;;5900719;28;20068;-66
2024/04/01 06:59:44;;;;;;;25.75;4.82;;;;;;;;;;5900420;28;20048;-66
2024/04/01 07:02:33;;;;;;;19.80;3.53;;;;;;;;;;5883842;28;20410;-66
2024/04/01 07:05:23;;;;;;;7.25;3.35;;;;;;;;;;5885129;28;20045;-66
2024/04/01 07:08:13;;;;;;;19.63;5.55;;;;;;;;;;5887629;28;20049;-66
2024/04/01 07:11:03;;;;;;;24.83;4.00;;;;;;;;;;5887542;28;20053;-67
2024/04/01 07:13:53;;;;;;;50.70;5.35;;;;;;;;;;5887915;28;20060;-66
2024/04/01 07:16:43;;;;;;;24.73;3.80;;;;;;;;;;5887661;28;20045;-66
2024/04/01 07:19:32;;;;;;;23.48;4.78;;;;;;;;;;5887555;28;20102;-66
2024/04/01 07:22:22;;;;;;;13.75;3.08;;;;;;;;;;5887494;28;20044;-67
2024/04/01 07:25:12;;;;;;;28.25;5.82;;;;;;;;;;5887210;28;20131;-67
2024/04/01 07:28:02;;;;;;;21.45;4.47;;;;;;;;;;5887495;28;20056;-67
2024/04/01 07:30:51;;;;;;;41.85;4.85;;;;;;;;;;5887598;28;20048;-67
2024/04/01 07:33:41;;;;;;;18.20;4.50;;;;;;;;;;5886819;28;20073;-67
2024/04/01 07:36:31;;;;;;;48.10;4.47;;;;;;;;;;5887202;28;20049;-67
2024/04/01 07:39:21;;;;;;;14.15;4.47;;;;;;;;;;5887034;28;20049;-67
2024/04/01 07:42:10;;;;;;;10.15;2.92;;;;;;;;;;5887028;28;20053;-67
2024/04/01 07:45:00;;;;;;;29.60;5.00;;;;;;;;;;5887101;28;20047;-66
2024/04/01 07:47:50;;;;;;;27.35;5.25;;;;;;;;;;5903836;28;20045;-67
2024/04/01 07:50:39;;;;;;;41.20;4.65;;;;;;;;;;5886587;28;20060;-67
2024/04/01 07:53:29;;;;;;;22.77;6.63;;;;;;;;;;5886740;28;20075;-67
2024/04/01 07:56:20;;;;;;;13.57;4.25;;;;;;;;;;5886908;28;20643;-67
2024/04/01 07:59:10;;;;;;;22.15;4.80;;;;;;;;;;5886511;28;20087;-66
2024/04/01 08:02:00;;;;;;;30.98;5.03;;;;;;;;;;5886954;28;20492;-67
2024/04/01 08:04:50;;;;;;;15.80;4.53;;;;;;;;;;5869874;28;20049;-67
2024/04/01 08:07:40;;;;;;;20.98;5.60;;;;;;;;;;5902625;28;20052;-67
2024/04/01 08:10:30;;;;;;;42.90;5.28;;;;;;;;;;5886010;28;20094;-67
2024/04/01 08:13:20;;;;;;;53.33;5.40;;;;;;;;;;5886017;28;20041;-67
2024/04/01 08:16:10;;;;;;;34.28;4.50;;;;;;;;;;5885650;28;20063;-67
2024/04/01 08:19:00;;;;;;;41.47;5.35;;;;;;;;;;5886383;28;20044;-66
2024/04/01 08:21:50;;;;;;;28.00;6.00;;;;;;;;;;5886097;28;20102;-67
2024/04/01 08:24:40;;;;;;;22.70;5.55;;;;;;;;;;5885770;28;20053;-67
2024/04/01 08:27:30;;;;;;;44.25;4.75;;;;;;;;;;5902450;28;20444;-67
2024/04/01 08:30:19;;;;;;;26.20;4.35;;;;;;;;;;5885601;28;20067;-67
2024/04/01 08:33:09;;;;;;;48.17;5.25;;;;;;;;;;5868870;28;20132;-67
2024/04/01 08:36:00;;;;;;;48.45;5.43;;;;;;;;;;5874787;28;20049;-66
2024/04/01 08:38:50;;;;;;;31.88;6.15;;;;;;;;;;5886618;28;20476;-66
2024/04/01 08:41:59;;;;;;;26.63;5.55;;;;;;;;;;5878873;28;20122;-67
2024/04/01 08:44:50;;;;;;;32.40;5.80;;;;;;;;;;5862436;28;20545;-67
2024/04/01 08:47:44;;;;;;;51.92;6.15;;;;;;;;;;5862327;28;20045;-67
2024/04/01 08:50:39;;;;;;;43.22;3.50;;;;;;;;;;5862583;28;20148;-66
2024/04/01 08:53:50;;;;;;;43.42;5.13;;;;;;;;;;5862290;28;20053;-66
2024/04/01 08:56:40;;;;;;;21.13;5.00;;;;;;;;;;5862341;28;20523;-67
2024/04/01 08:59:31;;;;;;;41.17;4.57;;;;;;;;;;5862573;28;20060;-66
2024/04/01 09:02:21;;;;;;;13.32;3.63;;;;;;;;;;5875260;28;20053;-67
2024/04/01 09:05:10;;;;;;;38.30;6.28;;;;;;;;;;5885391;28;20076;-67
2024/04/01 09:08:00;;;;;;;19.25;5.20;;;;;;;;;;5868256;28;20053;-67
2024/04/01 09:10:53;;;;;;;14.05;4.60;;;;;;;;;;5862457;28;20407;-67
2024/04/01 09:13:46;;;;;;;29.05;4.90;;;;;;;;;;5860441;28;20384;-67
2024/04/01 09:16:37;;;;;;;24.80;6.03;;;;;;;;;;5844273;28;20045;-67
2024/04/01 09:19:26;;;;;;;24.63;5.38;;;;;;;;;;5845079;28;20550;-67
2024/04/01 09:22:16;;;;;;;24.90;5.60;;;;;;;;;;5861546;28;20067;-66
2024/04/01 09:25:06;;;;;;;13.00;4.65;;;;;;;;;;5877805;28;20048;-67
2024/04/01 09:27:56;;;;;;;42.40;7.57;;;;;;;;;;5873861;28;20060;-66
2024/04/01 09:30:46;;;;;;;21.02;5.30;;;;;;;;;;5861422;28;20065;-67
2024/04/01 09:33:36;;;;;;;32.97;5.75;;;;;;;;;;5861112;28;20045;-66
2024/04/01 09:36:26;;;;;;;22.75;4.88;;;;;;;;;;5861681;28;20483;-66
2024/04/01 09:39:16;;;;;;;36.88;8.10;;;;;;;;;;5845180;28;20101;-66
2024/04/01 09:42:09;;;;;;;50.20;5.22;;;;;;;;;;5845011;28;20115;-67
2024/04/01 09:45:07;;;;;;;27.20;6.38;;;;;;;;;;5845398;28;20107;-67
2024/04/01 09:47:58;;;;;;;34.80;6.45;;;;;;;;;;5861271;28;20056;-67
2024/04/01 09:50:49;;;;;;;14.85;4.30;;;;;;;;;;5861488;28;20491;-67
2024/04/01 09:53:39;;;;;;;30.83;6.82;;;;;;;;;;5882007;28;20094;-67
2024/04/01 09:57:02;;;;;;;27.15;6.68;;;;;;;;;;5861260;28;20041;-67
2024/04/01 10:00:18;;;;;;;48.83;6.13;;;;;;;;;;5846756;28;20096;-67
2024/04/01 10:03:43;;;;;;;18.05;4.93;;;;;;;;;;5880001;28;20486;-75
2024/04/01 10:07:22;;;;;;;14.55;4.20;;;;;;;;;;5874937;28;20122;-75
2024/04/01 10:11:07;;;;;;;30.10;7.28;;;;;;;;;;5858726;28;20068;-73
2024/04/01 10:14:25;;;;;;;55.10;5.13;;;;;;;;;;5864227;28;20110;-74
2024/04/01 10:17:33;;;;;;;39.80;6.43;;;;;;;;;;5855291;28;20049;-73
2024/04/01 10:20:48;;;;;;;33.90;4.82;;;;;;;;;;5860514;28;20057;-74
2024/04/01 10:24:01;;;;;;;29.33;5.00;;;;;;;;;;5861102;28;20053;-76
2024/04/01 10:27:29;;;;;;;31.75;7.25;;;;;;;;;;5861550;28;20049;-74
2024/04/01 10:30:56;;;;;;;51.17;7.82;;;;;;;;;;5859561;28;20064;-76
2024/04/01 10:34:04;;;;;;;22.35;5.15;;;;;;;;;;5859960;28;20487;-74
2024/04/01 10:37:27;;;;;;;48.90;7.82;;;;;;;;;;5860705;28;20097;-75
2024/04/01 10:40:31;;;;;;;55.90;7.05;;;;;;;;;;5863290;28;20050;-73
2024/04/01 10:43:30;;;;;;;17.15;5.43;;;;;;;;;;5864861;28;20057;-74
2024/04/01 10:46:56;;;;;;;28.17;5.53;;;;;;;;;;5864835;28;20049;-74
2024/04/01 10:50:09;;;;;;;23.40;5.18;;;;;;;;;;5864459;28;20052;-74
2024/04/01 10:53:27;;;;;;;29.83;6.95;;;;;;;;;;5864927;28;20053;-76
2024/04/01 10:56:49;;;;;;;46.30;8.60;;;;;;;;;;5863303;28;20045;-74
2024/04/01 11:00:22;;;;;;;20.10;5.20;;;;;;;;;;5864444;28;20049;-74
2024/04/01 11:03:36;;;;;;;31.17;6.85;;;;;;;;;;5863453;28;20049;-74
2024/04/01 11:06:46;;;;;;;15.88;4.10;;;;;;;;;;5864182;28;20049;-74
2024/04/01 11:10:09;;;;;;;38.17;5.00;;;;;;;;;;5864148;28;20042;-74
2024/04/01 11:13:17;;;;;;;16.50;4.07;;;;;;;;;;5847943;28;20053;-73
2024/04/01 11:16:08;;;;;;;18.27;3.78;;;;;;;;;;5847711;28;20051;-73
2024/04/01 11:19:40;;;;;;;37.20;6.07;;;;;;;;;;5864387;28;20037;-75
2024/04/01 11:23:03;;;;;;;13.52;4.20;;;;;;;;;;5855676;28;20045;-73
2024/04/01 11:26:27;;;;;;;17.13;4.43;;;;;;;;;;5863925;28;20056;-74
2024/04/01 11:29:58;;;;;;;38.20;5.88;;;;;;;;;;5863340;28;20045;-74
2024/04/01 11:32:57;;;;;;;16.75;6.40;;;;;;;;;;5847303;28;20046;-74
2024/04/01 11:35:50;;;;;;;33.83;4.82;;;;;;;;;;5847650;28;20053;-75
2024/04/01 11:38:58;;;;;;;28.95;5.10;;;;;;;;;;5847432;28;20053;-76
2024/04/01 11:41:49;;;;;;;22.63;4.88;;;;;;;;;;5848107;28;20053;-74
2024/04/01 11:44:42;;;;;;;18.23;4.53;;;;;;;;;;5830560;28;20049;-73
2024/04/01 11:47:36;;;;;;;24.35;6.18;;;;;;;;;;5863384;28;20495;-74
2024/04/01 11:50:25;;;;;;;35.13;6.07;;;;;;;;;;5862577;28;20052;-74
2024/04/01 11:53:15;;;;;;;27.85;4.88;;;;;;;;;;5846814;28;20049;-74
2024/04/01 11:56:06;;;;;;;38.80;6.80;;;;;;;;;;5862986;28;20388;-73
2024/04/01 11:58:55;;;;;;;26.38;5.28;;;;;;;;;;5863316;28;20077;-73
2024/04/01 12:01:45;;;;;;;24.45;5.20;;;;;;;;;;5862946;28;20050;-74
2024/04/01 12:04:36;;;;;;;31.35;6.68;;;;;;;;;;5862772;28;20360;-74
2024/04/01 12:07:27;;;;;;;27.13;3.92;;;;;;;;;;5846373;28;20053;-74
2024/04/01 12:10:19;;;;;;;32.67;4.72;;;;;;;;;;5862625;28;20152;-73
2024/04/01 12:13:09;;;;;;;29.75;5.07;;;;;;;;;;5879046;28;20052;-73
2024/04/01 12:16:00;;;;;;;31.42;5.18;;;;;;;;;;5846629;28;20128;-74
2024/04/01 12:18:51;;;;;;;33.70;5.50;;;;;;;;;;5862753;28;20053;-73
2024/04/01 12:21:46;;;;;;;23.95;4.97;;;;;;;;;;5862483;28;20053;-74
2024/04/01 12:24:37;;;;;;;24.80;5.22;;;;;;;;;;5862538;28;20436;-74
2024/04/01 12:27:33;;;;;;;19.13;4.25;;;;;;;;;;5879155;28;20108;-73
2024/04/01 12:30:26;;;;;;;26.50;5.68;;;;;;;;;;5862316;28;20045;-73
2024/04/01 12:33:16;;;;;;;50.78;6.70;;;;;;;;;;5846182;28;20399;-73
2024/04/01 12:36:07;;;;;;;28.77;5.50;;;;;;;;;;5862143;28;20060;-73
2024/04/01 12:38:57;;;;;;;45.50;6.22;;;;;;;;;;5846064;28;20045;-74
2024/04/01 12:41:49;;;;;;;30.48;4.47;;;;;;;;;;5862120;28;20049;-74
2024/04/01 12:44:39;;;;;;;17.20;4.32;;;;;;;;;;5861804;28;20050;-74
2024/04/01 12:47:29;;;;;;;16.25;3.10;;;;;;;;;;5845967;28;20071;-73
2024/04/01 12:50:19;;;;;;;36.40;5.18;;;;;;;;;;5862057;28;20479;-73
2024/04/01 12:53:33;;;;;;;24.33;5.93;;;;;;;;;;5861845;28;20052;-73
2024/04/01 12:56:41;;;;;;;27.13;5.22;;;;;;;;;;5862111;28;20045;-73
2024/04/01 13:00:05;;;;;;;50.55;5.32;;;;;;;;;;5861591;28;20049;-73
2024/04/01 13:03:08;;;;;;;31.90;5.00;;;;;;;;;;5861078;28;20492;-74
2024/04/01 13:06:35;;;;;;;43.47;6.28;;;;;;;;;;5861773;28;20052;-74
2024/04/01 13:09:37;;;;;;;25.95;3.53;;;;;;;;;;5853268;28;20108;-74
2024/04/01 13:12:53;;;;;;;22.98;5.90;;;;;;;;;;5862419;28;20426;-74
2024/04/01 13:16:23;;;;;;;23.38;4.03;;;;;;;;;;5845965;28;20052;-74
2024/04/01 13:19:45;;;;;;;8.90;3.55;;;;;;;;;;5861145;28;20049;-75
2024/04/01 13:23:02;;;;;;;22.38;4.32;;;;;;;;;;5846412;28;20451;-74
2024/04/01 13:25:57;;;;;;;19.58;5.25;;;;;;;;;;5877840;28;20156;-74
2024/04/01 13:28:55;;;;;;;15.32;4.63;;;;;;;;;;5860551;28;20046;-74
2024/04/01 13:32:07;;;;;;;38.97;4.82;;;;;;;;;;5861099;28;20053;-75
2024/04/01 13:35:25;;;;;;;29.95;5.15;;;;;;;;;;5860908;28;20045;-74
2024/04/01 13:38:21;;;;;;;;;;;;;;;;;;5860860;28;20099;-75
2024/04/01 13:41:35;;;;;;;13.93;4.25;;;;;;;;;;5860694;28;19926;-75
2024/04/01 13:44:54;;;;;;;32.70;5.00;;;;;;;;;;5831308;28;20045;-75
2024/04/01 13:47:56;;;;;;;27.98;5.85;;;;;;;;;;5862014;28;20057;-74
2024/04/01 13:51:18;;;;;;;13.50;3.67;;;;;;;;;;5861014;28;20053;-75
2024/04/01 13:54:38;;;;;;;39.38;5.72;;;;;;;;;;5860375;28;20061;-73
2024/04/01 13:57:53;;;;;;;19.98;3.95;;;;;;;;;;5860836;28;20046;-75
2024/04/01 14:01:17;;;;;;;11.95;4.40;;;;;;;;;;5860669;28;20111;-75
2024/04/01 14:05:10;;;;;;;25.92;4.72;;;;;;;;;;5844210;28;20045;-74
2024/04/01 14:08:16;;;;;;;32.20;4.77;;;;;;;;;;5842332;28;20042;-75
2024/04/01 14:11:55;;;;;;;16.92;3.10;;;;;;;;;;5840759;28;20061;-74
2024/04/01 14:15:05;;;;;;;17.50;3.55;;;;;;;;;;5862989;28;20116;-74
2024/04/01 14:18:36;;;;;;;13.85;3.72;;;;;;;;;;5865585;28;20045;-75
2024/04/01 14:21:26;;;;;;;32.75;4.70;;;;;;;;;;5845816;28;20048;-76
2024/04/01 14:24:16;;;;;;;11.52;3.78;;;;;;;;;;5848582;28;20045;-76
2024/04/01 14:27:06;;;;;;;22.63;3.60;;;;;;;;;;5865136;28;20053;-76
2024/04/01 14:29:56;;;;;;;28.25;4.90;;;;;;;;;;5865186;28;20141;-76
2024/04/01 14:32:47;;;;;;;20.70;5.82;;;;;;;;;;5881411;28;20053;-74
2024/04/01 14:35:37;;;;;;;41.28;5.30;;;;;;;;;;5864629;28;20054;-75
2024/04/01 14:38:28;;;;;;;12.30;3.75;;;;;;;;;;5864855;28;20053;-74
2024/04/01 14:41:19;;;;;;;55.55;6.15;;;;;;;;;;5848311;28;20340;-73
2024/04/01 14:44:09;;;;;;;14.93;3.53;;;;;;;;;;5864253;28;20051;-74
2024/04/01 14:46:59;;;;;;;25.25;5.60;;;;;;;;;;5832253;28;20076;-75
2024/04/01 14:49:49;;;;;;;31.92;4.88;;;;;;;;;;5831540;28;20415;-74
2024/04/01 14:52:39;;;;;;;10.80;3.67;;;;;;;;;;5848070;28;20053;-73
2024/04/01 14:55:31;;;;;;;35.88;4.90;;;;;;;;;;5864352;28;20048;-73
2024/04/01 14:58:22;;;;;;;14.05;3.78;;;;;;;;;;5847979;28;20053;-75
2024/04/01 15:01:12;;;;;;;33.05;5.28;;;;;;;;;;5864158;28;20119;-75
2024/04/01 15:04:08;;;;;;;24.92;5.35;;;;;;;;;;5864260;28;20076;-73
2024/04/01 15:06:58;;;;;;;24.40;5.05;;;;;;;;;;5864628;28;20396;-75
2024/04/01 15:09:51;;;;;;;25.23;6.30;;;;;;;;;;5863938;28;20041;-74
2024/04/01 15:12:41;;;;;;;28.55;3.90;;;;;;;;;;5847945;28;20055;-74
2024/04/01 15:15:35;;;;;;;20.63;4.00;;;;;;;;;;5831150;28;20052;-75
2024/04/01 15:18:25;;;;;;;24.95;5.28;;;;;;;;;;5863989;28;20057;-74
2024/04/01 15:21:15;;;;;;;33.67;6.20;;;;;;;;;;5863961;28;20109;-73
2024/04/01 15:24:07;;;;;;;40.13;4.40;;;;;;;;;;5863720;28;20059;-74
2024/04/01 15:26:57;;;;;;;33.17;4.65;;;;;;;;;;5863061;28;20068;-74
2024/04/01 15:29:48;;;;;;;15.02;3.47;;;;;;;;;;5863701;28;20056;-73
2024/04/01 15:32:40;;;;;;;23.55;6.28;;;;;;;;;;5863464;28;20057;-74
2024/04/01 15:35:30;;;;;;;54.38;7.45;;;;;;;;;;5863629;28;20049;-74
2024/04/01 15:38:20;;;;;;;27.83;6.60;;;;;;;;;;5847352;28;20053;-74
2024/04/01 15:41:10;;;;;;;49.92;6.50;;;;;;;;;;5863526;28;20045;-74
2024/04/01 15:44:00;;;;;;;17.23;5.05;;;;;;;;;;5864153;28;20410;-73
2024/04/01 15:46:50;;;;;;;77.22;6.47;;;;;;;;;;5863312;28;20049;-74
2024/04/01 15:49:42;;;;;;;32.85;4.60;;;;;;;;;;5863640;28;20063;-74
2024/04/01 15:52:33;;;;;;;23.15;6.00;;;;;;;;;;5846992;28;20115;-74
2024/04/01 15:55:23;;;;;;;19.00;5.60;;;;;;;;;;5846895;28;20050;-74
2024/04/01 15:58:16;;;;;;;26.23;5.97;;;;;;;;;;5863093;28;20049;-74
2024/04/01 16:01:08;;;;;;;12.95;4.97;;;;;;;;;;5847486;28;20064;-74
2024/04/01 16:03:59;;;;;;;19.92;6.05;;;;;;;;;;5863536;28;20175;-74
2024/04/01 16:06:52;;;;;;;35.30;6.97;;;;;;;;;;5863097;28;20049;-74
2024/04/01 16:09:46;;;;;;;42.47;5.75;;;;;;;;;;5863482;28;20053;-74
2024/04/01 16:12:37;;;;;;;27.42;5.32;;;;;;;;;;5862698;28;20041;-74
2024/04/01 16:15:34;;;;;;;20.40;5.30;;;;;;;;;;5862969;28;20064;-74
2024/04/01 16:18:28;;;;;;;17.30;4.82;;;;;;;;;;5862891;28;20053;-74
2024/04/01 16:21:26;;;;;;;21.00;4.72;;;;;;;;;;5862560;28;20104;-74
2024/04/01 16:24:20;;;;;;;44.55;5.72;;;;;;;;;;5862740;28;20041;-74
2024/04/01 16:27:22;;;;;;;37.67;6.95;;;;;;;;;;5846454;28;20046;-74
2024/04/01 16:30:21;;;;;;;26.20;5.40;;;;;;;;;;5859096;28;20057;-74
2024/04/01 16:33:12;;;;;;;23.42;6.35;;;;;;;;;;5846180;28;20049;-74
2024/04/01 16:36:02;;;;;;;28.73;6.18;;;;;;;;;;5862495;28;20045;-73
2024/04/01 16:38:52;;;;;;;27.45;5.22;;;;;;;;;;5862725;28;20059;-74
2024/04/01 16:41:43;;;;;;;48.40;6.25;;;;;;;;;;5845800;28;20056;-74
2024/04/01 16:44:36;;;;;;;16.90;5.45;;;;;;;;;;5862120;28;20045;-74
2024/04/01 16:47:28;;;;;;;28.58;5.30;;;;;;;;;;5862135;28;20042;-74
2024/04/01 16:50:20;;;;;;;30.45;5.85;;;;;;;;;;5862019;28;20049;-73
2024/04/01 16:53:09;;;;;;;40.72;6.55;;;;;;;;;;5862280;28;20053;-73
2024/04/01 16:56:00;;;;;;;54.88;7.65;;;;;;;;;;5862379;28;20072;-67
2024/04/01 16:58:50;;;;;;;21.58;5.43;;;;;;;;;;5878810;28;20045;-67
2024/04/01 17:01:39;;;;;;;48.83;6.50;;;;;;;;;;5861886;28;20048;-67
2024/04/01 17:04:36;;;;;;;28.52;5.93;;;;;;;;;;5861789;28;20396;-67
2024/04/01 17:07:26;;;;;;;55.75;7.55;;;;;;;;;;5861860;28;20076;-67
2024/04/01 17:10:17;;;;;;;33.13;7.40;;;;;;;;;;5861798;28;20406;-67
2024/04/01 17:13:09;;;;;;;39.17;6.22;;;;;;;;;;5861886;28;20057;-66
2024/04/01 17:15:59;;;;;;;33.08;6.05;;;;;;;;;;5862142;28;20285;-66